Date,TemperatureHighF,TemperatureAvgF,TemperatureLowF,DewpointHighF,DewpointAvgF,DewpointLowF,HumidityHigh,HumidityAvg,HumidityLow,PressureMaxIn,PressureMinIn,WindSpeedMaxMPH,WindSpeedAvgMPH,GustSpeedMaxMPH,PrecipitationSumIn
2013-1-1,34.8,32.4,25.8,29.1,26.3,18.7,82,78,72,30.06,29.93,11,6,21,0.02
2013-1-2,26.4,20.9,12.5,19.1,13.4,8.1,87,73,59,30.26,30.03,10,4,16,0.00
2013-1-3,34.0,21.0,2.7,21.4,13.7,-0.3,90,75,56,30.27,30.15,16,5,23,0.01
2013-1-4,33.2,29.9,27.5,23.4,21.3,19.7,77,70,63,30.22,30.12,15,9,25,0.00
2013-1-5,35.9,28.9,21.2,24.2,21.2,17.1,87,73,60,30.40,30.18,12,4,18,0.02
2013-1-6,41.0,35.4,28.8,30.8,27.7,23.7,83,74,62,30.18,30.01,10,4,16,0.03
2013-1-7,36.7,30.5,17.2,30.4,24.6,14.8,90,79,67,30.44,30.16,10,4,19,0.00
2013-1-8,40.3,22.6,10.5,28.9,18.0,7.9,91,84,59,30.44,30.34,6,2,8,0.00
2013-1-9,46.9,31.5,15.4,40.9,25.6,13.0,92,80,56,30.42,30.25,23,6,31,0.01
2013-1-10,43.7,36.4,28.3,30.7,28.6,24.4,88,74,57,30.61,30.42,10,2,14,0.00
2013-1-11,40.9,34.5,30.7,34.4,31.4,27.6,95,88,72,30.46,30.11,5,1,7,0.29
2013-1-12,50.4,38.0,33.4,44.8,36.0,32.1,97,93,81,30.17,30.09,7,2,9,0.00
2013-1-13,52.9,41.4,33.1,48.4,39.6,31.6,97,93,85,30.09,29.93,7,2,10,0.00
2013-1-14,50.9,41.7,30.8,50.0,35.6,27.9,97,79,66,30.33,29.89,13,4,23,0.15
2013-1-15,34.8,32.1,27.4,28.7,26.6,24.9,92,80,70,30.38,30.17,6,3,9,0.00
2013-1-16,36.6,31.2,27.5,32.0,28.2,25.4,94,89,65,30.16,29.89,10,3,15,0.19
2013-1-17,36.2,34.1,32.4,28.3,26.9,24.8,82,75,64,30.17,30.00,15,5,20,0.07
2013-1-18,33.2,25.0,19.2,26.9,14.6,7.1,82,65,48,30.50,30.10,14,6,23,0.00
2013-1-19,52.9,38.1,18.9,25.8,19.3,13.8,83,51,26,30.34,29.86,15,7,21,0.08
2013-1-20,44.8,37.2,22.3,30.8,21.0,12.6,68,52,39,30.10,29.74,19,10,33,0.00
2013-1-21,30.5,22.7,14.1,22.1,15.7,0.6,86,74,55,30.10,29.88,14,6,20,0.00
2013-1-22,14.6,10.5,8.0,5.2,1.0,-2.9,78,65,49,30.31,30.01,15,8,22,0.00
2013-1-23,16.2,10.6,6.4,5.4,2.0,-1.1,84,68,52,30.35,30.15,10,4,18,0.00
2013-1-24,20.5,13.3,6.2,8.2,3.7,-2.4,89,67,40,30.57,30.13,13,4,17,0.00
2013-1-25,17.0,13.2,8.6,13.0,8.0,0.7,88,80,67,30.56,30.08,4,1,7,0.00
2013-1-26,28.7,23.2,15.3,21.3,17.5,12.1,89,79,66,30.45,30.10,8,3,16,0.07
2013-1-27,30.7,24.4,20.4,21.8,16.6,14.0,84,72,55,30.59,30.45,7,2,10,0.03
2013-1-28,48.6,31.5,25.7,47.7,29.3,22.0,97,92,81,30.45,30.05,7,3,11,0.48
2013-1-29,55.5,43.7,34.4,53.6,42.2,32.8,98,94,86,30.11,29.91,7,2,9,0.05
2013-1-30,58.9,44.2,31.9,57.3,42.8,30.8,98,95,85,29.91,29.24,19,2,22,1.13
2013-1-31,50.5,31.3,23.7,49.7,23.0,11.6,97,71,55,29.84,29.17,24,13,39,0.10
2013-2-1,25.2,17.4,10.7,18.8,9.7,2.8,88,72,59,30.37,29.82,13,7,24,0.00
2013-2-2,25.4,17.1,7.8,20.0,11.5,3.4,91,79,63,30.36,30.01,10,4,18,0.00
2013-2-3,30.4,22.6,18.1,23.4,18.2,13.1,92,83,65,30.02,29.81,15,4,17,0.06
2013-2-4,30.2,22.7,17.4,23.3,15.9,8.2,92,75,59,30.08,29.89,14,5,24,0.00
2013-2-5,34.7,27.5,23.7,29.4,24.5,21.7,93,89,75,29.96,29.84,14,2,22,0.01
2013-2-6,33.0,26.4,9.8,25.9,20.4,7.2,90,78,61,30.38,29.94,9,4,19,0.00
2013-2-7,37.2,23.9,9.1,26.3,17.9,6.5,90,79,62,30.44,30.18,9,3,15,0.03
2013-2-8,35.4,30.6,24.5,31.1,26.7,19.4,91,85,76,30.18,29.81,13,4,27,0.08
2013-2-9,32.0,23.5,11.7,19.7,15.4,8.4,88,72,50,30.43,30.05,15,5,24,0.00
2013-2-10,41.7,24.8,6.5,26.7,15.4,3.7,90,70,44,30.47,30.15,8,3,13,0.00
2013-2-11,62.2,42.0,30.7,44.5,31.3,23.2,94,70,30,30.16,29.65,20,7,33,0.15
2013-2-12,42.4,35.2,20.9,28.8,25.2,18.3,90,68,55,30.01,29.82,19,8,33,0.00
2013-2-13,38.9,27.4,17.1,31.0,24.1,14.9,95,88,69,29.97,29.72,6,1,7,0.00
2013-2-14,45.4,35.2,23.1,31.9,27.1,19.3,87,73,55,29.99,29.82,12,4,18,0.14
2013-2-15,45.4,37.3,29.1,32.7,28.6,22.8,88,72,44,30.04,29.93,14,6,21,0.00
2013-2-16,31.9,26.8,21.3,26.5,19.5,13.7,92,74,53,30.02,29.91,9,4,14,0.02
2013-2-17,23.7,19.4,16.0,16.1,11.4,5.5,86,71,55,30.26,29.89,15,7,25,0.01
2013-2-18,39.8,24.0,6.9,22.5,12.7,3.0,86,63,37,30.38,30.08,8,3,12,0.01
2013-2-19,40.7,30.5,23.5,36.6,25.3,17.5,92,81,69,30.08,29.65,15,5,24,0.30
2013-2-20,25.9,21.3,19.3,19.2,13.2,9.9,85,71,61,30.20,29.89,16,9,24,0.00
2013-2-21,28.2,22.1,17.2,18.4,14.4,11.2,87,72,60,30.38,30.17,13,5,21,0.00
2013-2-22,29.2,24.3,17.2,23.7,20.4,14.0,91,85,69,30.38,30.17,8,2,12,0.00
2013-2-23,42.0,31.1,25.8,36.3,28.1,23.5,92,89,80,30.17,29.86,7,2,8,0.05
2013-2-24,33.7,30.2,27.1,29.4,24.5,20.6,94,79,70,30.14,29.86,12,4,21,0.00
2013-2-25,44.1,32.0,23.8,26.5,22.4,18.9,87,69,43,30.24,30.14,7,2,13,0.00
2013-2-26,37.9,31.9,23.3,32.5,26.7,20.0,92,81,63,30.19,29.72,12,4,19,0.42
2013-2-27,44.7,36.5,31.2,38.2,32.6,29.2,95,86,69,29.72,29.61,11,4,17,0.27
2013-2-28,38.2,34.8,31.9,32.3,29.7,27.5,88,81,73,29.76,29.63,15,5,21,0.03
2013-3-1,36.2,32.5,28.0,30.1,26.5,21.8,88,78,69,29.94,29.75,13,7,19,0.02
2013-3-2,28.7,26.7,25.3,22.4,20.7,18.6,83,78,67,29.93,29.87,12,5,16,0.00
2013-3-3,30.4,26.8,23.3,21.8,19.8,15.6,81,75,63,29.98,29.87,12,5,19,0.00
2013-3-4,34.5,26.6,22.0,21.4,17.9,14.1,81,70,55,30.08,29.97,14,5,21,0.00
2013-3-5,42.2,31.7,18.7,26.5,19.9,13.9,83,63,33,30.11,29.80,11,5,13,0.00
2013-3-6,39.1,34.2,28.8,31.5,28.3,25.8,94,80,65,30.09,29.75,14,6,19,0.25
2013-3-7,40.3,36.9,34.3,31.4,28.8,26.3,81,72,61,30.23,30.08,13,6,19,0.00
2013-3-8,44.3,36.0,27.6,30.5,26.4,22.8,82,68,52,30.37,30.20,17,8,25,0.00
2013-3-9,55.8,34.9,18.5,30.8,24.0,15.9,91,69,27,30.42,30.27,7,1,10,0.01
2013-3-10,64.0,44.0,23.7,31.1,27.5,20.9,90,58,27,30.30,30.13,11,4,16,0.00
2013-3-11,54.6,48.4,40.2,46.8,34.3,26.7,87,59,42,30.13,29.81,13,5,22,0.05
2013-3-12,51.1,42.1,37.3,47.0,36.6,27.4,94,81,68,29.98,29.74,12,5,19,0.71
2013-3-13,38.7,32.1,26.6,31.3,25.5,19.3,90,77,49,30.08,29.92,19,6,25,0.05
2013-3-14,36.1,29.8,25.3,22.3,18.7,15.9,85,64,44,30.16,30.06,16,9,25,0.00
2013-3-15,48.3,36.8,22.5,34.8,26.0,17.2,85,66,50,30.13,29.81,16,5,22,0.00
2013-3-16,39.9,32.4,30.3,34.9,29.9,28.1,94,90,81,29.95,29.69,6,3,9,0.17
2013-3-17,35.0,31.9,27.1,30.8,25.6,21.6,94,78,67,30.26,29.94,10,4,17,0.02
2013-3-18,32.2,29.0,25.8,27.3,24.5,21.5,91,84,65,30.27,29.88,11,5,22,0.00
2013-3-19,45.6,35.6,29.3,31.8,25.5,17.2,95,70,34,29.96,29.75,22,9,33,0.66
2013-3-20,40.0,32.6,26.3,27.6,20.4,15.5,89,62,42,29.96,29.81,19,9,27,0.00
2013-3-21,28.6,24.2,18.2,20.0,14.5,10.0,87,67,50,29.90,29.82,13,6,21,0.00
2013-3-22,34.6,28.6,23.8,23.1,20.5,18.7,85,72,56,30.04,29.88,14,7,22,0.01
2013-3-23,45.0,33.4,26.3,26.9,23.1,20.8,81,67,43,30.05,29.97,13,5,24,0.00
2013-3-24,41.3,31.0,18.5,28.4,22.2,15.8,91,71,50,30.03,29.64,9,3,12,0.00
2013-3-25,33.8,30.2,27.9,30.1,27.9,25.9,95,91,86,29.73,29.54,4,1,6,0.43
2013-3-26,43.7,34.7,26.8,33.0,28.8,25.3,95,80,60,30.03,29.73,16,5,29,0.12
2013-3-27,43.6,36.0,30.9,32.9,29.8,26.6,90,78,58,30.14,30.02,16,7,25,0.06
2013-3-28,40.8,37.2,33.0,34.7,31.4,29.8,88,80,69,30.26,30.08,11,5,16,0.04
2013-3-29,50.3,40.3,29.7,35.9,30.9,26.3,87,70,45,30.26,30.16,12,3,15,0.00
2013-3-30,54.7,37.0,20.0,31.1,23.3,15.3,93,64,23,30.26,30.10,10,2,13,0.00
2013-3-31,43.5,35.3,27.2,41.9,32.3,23.8,95,89,74,30.11,29.75,6,1,9,0.39
2013-4-1,46.7,41.2,30.7,41.1,30.5,14.0,88,67,36,29.99,29.71,14,7,27,0.03
2013-4-2,39.6,32.6,28.1,20.4,16.1,11.9,66,51,35,30.19,29.99,15,8,23,0.00
2013-4-3,39.0,30.7,20.7,26.5,15.7,9.4,82,55,36,30.42,30.17,15,7,21,0.00
2013-4-4,50.2,33.4,15.8,23.2,14.4,5.9,87,52,19,30.42,30.03,10,4,16,0.00
2013-4-5,56.1,42.3,26.0,32.7,23.6,16.4,84,50,28,30.13,29.90,17,6,26,0.00
2013-4-6,56.9,41.0,23.5,26.0,21.0,12.4,84,49,20,30.32,30.13,11,4,15,0.00
2013-4-7,69.9,52.3,35.9,50.8,35.5,23.2,83,54,33,30.17,29.88,15,5,21,0.00
2013-4-8,76.6,57.5,37.4,52.9,44.4,35.2,95,67,33,30.06,29.90,13,3,18,0.01
2013-4-9,80.8,66.9,49.7,55.3,51.7,44.0,81,60,37,30.05,29.86,13,5,19,0.00
2013-4-10,83.4,71.1,52.4,61.4,56.3,48.0,85,61,41,29.90,29.73,23,8,31,0.07
2013-4-11,78.6,59.8,49.7,61.9,53.3,45.7,95,80,49,29.84,29.72,12,5,19,0.00
2013-4-12,69.9,53.4,45.4,59.7,46.3,34.2,95,79,45,29.81,29.57,19,5,28,0.74
2013-4-13,58.3,47.7,36.3,37.2,33.8,30.0,83,59,40,29.96,29.80,15,7,24,0.00
2013-4-14,64.5,48.7,33.6,42.7,33.3,26.1,87,59,30,30.15,29.96,13,3,16,0.00
2013-4-15,64.0,57.2,48.8,50.2,46.0,40.9,80,67,56,30.19,30.08,16,6,31,0.00
2013-4-16,79.2,63.9,55.4,60.0,54.8,50.2,92,74,49,30.18,30.00,18,7,31,0.74
2013-4-17,67.9,58.0,50.2,57.0,53.3,48.1,97,85,61,30.22,30.10,9,2,11,0.01
2013-4-18,75.0,63.4,58.1,63.6,55.7,46.8,87,77,59,30.19,29.85,16,6,27,0.00
2013-4-19,74.8,61.4,46.1,61.6,53.0,35.7,88,74,61,29.85,29.46,18,9,27,0.52
2013-4-20,49.4,42.4,34.9,35.6,29.0,24.1,81,60,39,30.39,29.79,20,10,25,0.01
2013-4-21,52.0,39.1,22.5,28.3,23.4,19.8,91,57,31,30.61,30.39,11,4,16,0.00
2013-4-22,58.7,46.5,32.5,33.4,28.9,23.8,83,53,29,30.56,30.36,12,5,19,0.00
2013-4-23,66.1,48.2,26.8,42.9,35.8,24.3,92,65,34,30.38,30.07,9,3,13,0.00
2013-4-24,74.8,51.8,36.0,56.1,43.7,33.6,92,76,47,30.09,29.69,21,7,31,0.28
2013-4-25,61.5,47.6,37.7,36.5,30.9,22.0,80,56,24,30.33,30.09,16,6,22,0.00
2013-4-26,63.7,47.6,31.2,38.1,32.6,24.0,90,60,25,30.47,30.33,8,2,12,0.00
2013-4-27,71.0,51.0,27.8,43.6,34.7,25.1,91,60,28,30.43,30.24,11,3,17,0.00
2013-4-28,60.2,48.5,36.4,46.6,42.4,33.6,90,80,57,30.24,30.09,11,4,21,0.16
2013-4-29,53.6,51.4,48.1,52.1,48.0,44.7,95,88,83,30.09,30.03,9,2,13,0.04
2013-4-30,63.7,55.3,50.9,56.1,51.0,48.4,94,86,73,30.26,30.09,9,3,16,0.00
2013-5-1,72.8,59.2,45.1,50.0,39.9,26.1,91,56,19,30.37,30.26,10,3,18,0.01
2013-5-2,74.5,55.9,35.3,46.7,40.0,32.5,94,60,24,30.41,30.27,9,3,14,0.00
2013-5-3,70.0,55.4,36.3,48.5,41.4,34.1,95,63,40,30.35,30.23,11,4,17,0.00
2013-5-4,69.2,55.4,35.8,49.2,42.5,33.1,93,64,41,30.29,30.13,9,4,18,0.00
2013-5-5,70.9,53.7,34.9,44.6,36.4,21.1,94,59,16,30.20,30.08,11,4,19,0.00
2013-5-6,62.8,50.6,32.8,53.9,45.0,30.7,94,82,64,30.17,30.06,8,3,12,0.03
2013-5-7,65.3,58.0,54.6,58.3,53.4,50.8,92,85,71,30.07,29.95,11,6,15,0.38
2013-5-8,69.5,58.3,50.7,57.7,52.6,49.0,97,83,56,29.98,29.88,10,3,16,1.17
2013-5-9,72.8,59.3,50.3,59.5,53.3,47.8,97,82,55,29.99,29.88,11,3,16,0.01
2013-5-10,75.2,58.6,46.3,64.0,54.3,44.7,97,87,64,30.00,29.82,13,2,17,0.58
2013-5-11,65.4,59.7,55.6,59.0,55.6,49.2,96,87,72,29.83,29.73,13,5,20,0.25
2013-5-12,55.6,48.9,39.5,49.2,34.5,26.3,82,59,38,30.01,29.75,18,8,25,0.00
2013-5-13,51.1,42.4,30.9,34.1,29.5,24.8,88,62,40,30.18,30.00,13,5,25,0.00
2013-5-14,59.4,42.5,24.2,41.9,32.0,21.9,93,70,32,30.23,30.02,11,2,13,0.00
2013-5-15,87.0,62.1,39.8,62.6,50.9,37.7,93,71,40,30.02,29.68,17,5,23,0.04
2013-5-16,78.3,67.7,57.3,62.3,55.6,44.0,96,69,32,29.93,29.73,14,6,23,0.05
2013-5-17,80.8,65.5,46.9,60.3,54.2,45.3,96,70,37,30.12,29.93,7,2,10,0.00
2013-5-18,71.0,60.4,49.4,60.6,53.3,44.8,88,78,60,30.17,30.10,9,3,14,0.00
2013-5-19,61.6,58.3,55.3,59.6,55.6,52.5,94,91,86,30.18,30.06,5,1,10,0.00
2013-5-20,86.8,69.7,60.4,69.3,63.2,58.6,96,81,54,30.08,29.92,8,2,13,0.00
2013-5-21,90.7,73.7,58.6,71.4,63.7,56.9,98,75,41,29.95,29.78,10,4,17,0.01
2013-5-22,91.1,71.8,60.5,66.8,61.7,57.6,93,74,39,29.86,29.74,19,4,20,0.11
2013-5-23,83.0,67.0,60.3,66.7,59.8,56.2,96,80,45,29.83,29.69,18,4,21,0.08
2013-5-24,61.6,48.5,42.6,56.5,40.9,31.7,88,75,60,30.22,29.76,16,8,25,0.00
2013-5-25,61.4,49.7,39.3,40.2,35.3,32.5,81,60,37,30.25,30.14,19,9,31,0.00
2013-5-26,66.3,53.3,39.7,42.4,36.8,33.0,85,56,32,30.25,30.16,13,5,20,0.00
2013-5-27,67.0,51.6,31.0,51.8,40.9,28.9,94,71,37,30.30,30.16,8,2,15,0.00
2013-5-28,70.3,57.0,50.0,64.0,54.5,47.5,96,91,81,30.19,30.03,11,2,12,0.58
2013-5-29,86.7,70.8,58.5,68.3,60.8,54.8,98,75,38,30.08,30.02,13,5,19,0.01
2013-5-30,91.0,71.3,53.4,70.6,60.7,51.6,96,73,30,30.17,30.06,8,2,12,0.00
2013-5-31,91.8,74.4,57.7,68.2,61.7,55.7,96,70,33,30.11,29.95,9,3,14,0.00
2013-6-1,91.8,73.2,58.3,69.3,63.1,55.8,94,74,41,29.99,29.83,12,3,18,0.00
2013-6-2,82.6,71.3,62.1,67.6,62.5,58.5,95,76,46,29.83,29.77,13,3,19,0.01
2013-6-3,71.7,63.3,47.1,61.8,56.7,43.8,95,80,59,30.00,29.81,10,3,14,0.00
2013-6-4,73.3,58.5,37.3,51.9,45.3,34.6,92,64,38,30.13,30.00,10,3,13,0.00
2013-6-5,78.9,61.7,40.6,60.0,50.5,38.7,96,69,47,30.18,29.99,9,3,13,0.00
2013-6-6,68.1,60.5,57.1,59.6,56.1,53.5,96,86,68,30.00,29.82,12,2,16,0.76
2013-6-7,64.5,62.4,60.8,62.2,60.4,58.1,96,93,88,29.82,29.68,6,2,10,0.07
2013-6-8,71.4,61.2,51.9,58.9,54.9,49.7,93,80,60,30.11,29.75,9,4,13,0.01
2013-6-9,81.6,66.2,48.3,66.0,58.7,46.7,97,79,55,30.18,30.06,8,2,12,0.00
2013-6-10,78.0,67.7,60.4,69.8,63.8,58.3,93,88,76,30.07,29.74,8,2,14,0.38
2013-6-11,75.6,66.7,58.3,66.0,61.2,56.4,96,83,67,29.85,29.75,12,4,20,0.01
2013-6-12,82.8,69.9,58.8,69.9,63.2,55.8,95,81,53,29.87,29.75,9,2,16,0.01
2013-6-13,76.7,67.3,62.3,66.9,61.6,53.4,95,83,69,29.75,29.48,18,6,21,0.65
2013-6-14,73.6,65.1,55.6,63.2,55.0,50.5,84,71,50,30.00,29.67,12,6,21,0.00
2013-6-15,76.2,63.8,48.2,57.7,50.0,41.3,95,65,30,30.09,29.99,10,4,14,0.00
2013-6-16,78.3,65.6,54.5,67.3,59.6,50.7,91,81,63,30.03,29.87,14,5,24,0.08
2013-6-17,83.2,72.5,59.5,67.3,62.1,56.6,91,72,43,29.93,29.85,8,3,12,0.01
2013-6-18,76.1,66.4,57.3,67.8,61.6,55.1,96,85,70,29.92,29.78,11,2,13,0.60
2013-6-19,75.8,62.7,50.1,57.9,52.8,47.3,93,73,40,30.15,29.91,8,3,13,0.00
2013-6-20,83.4,63.9,45.4,66.6,56.7,43.8,95,79,51,30.24,30.15,7,2,12,0.00
2013-6-21,85.1,70.2,54.3,68.4,61.8,52.6,97,77,51,30.25,30.16,7,2,11,0.00
2013-6-22,89.3,72.1,55.2,71.4,63.4,53.2,95,76,48,30.20,30.05,7,2,13,0.00
2013-6-23,89.2,73.0,60.2,73.0,66.4,58.3,96,81,54,30.15,30.02,8,2,12,0.00
2013-6-24,86.3,73.8,62.7,73.6,66.4,61.2,96,79,49,30.11,29.98,8,3,14,0.04
2013-6-25,90.0,74.5,61.8,70.6,64.5,59.3,96,74,45,30.02,29.83,24,5,37,0.11
2013-6-26,83.8,71.3,62.3,72.4,65.5,59.9,93,83,63,29.94,29.79,12,3,15,0.24
2013-6-27,77.1,67.0,61.1,69.7,64.7,59.7,97,92,78,29.81,29.58,6,1,10,0.96
2013-6-28,82.1,69.1,57.5,70.9,63.5,55.4,93,83,64,29.59,29.46,9,3,18,0.10
2013-6-29,82.2,67.8,56.9,67.7,60.8,54.8,95,80,53,29.69,29.50,10,3,16,0.01
2013-6-30,85.8,69.6,55.8,74.1,63.4,54.4,97,82,57,29.83,29.68,8,1,11,0.01
2013-7-1,83.0,72.4,65.2,72.6,66.8,62.5,93,83,65,29.93,29.81,8,3,13,0.17
2013-7-2,84.8,72.8,65.7,73.0,68.1,63.0,96,86,67,30.08,29.92,9,3,18,0.19
2013-7-3,87.9,72.6,65.0,74.3,67.8,62.7,96,86,59,30.17,30.07,8,2,11,0.21
2013-7-4,89.0,75.5,64.8,74.4,68.8,63.3,97,81,54,30.19,30.10,8,2,14,0.01
2013-7-5,90.1,75.4,64.0,75.4,69.2,62.5,97,83,57,30.15,30.06,10,3,15,0.03
2013-7-6,91.1,76.6,66.9,75.2,69.3,65.1,97,81,50,30.16,30.00,8,3,13,0.00
2013-7-7,88.7,71.5,64.6,74.5,66.4,62.1,95,85,57,30.06,29.98,14,2,18,0.26
2013-7-8,84.4,71.4,63.1,70.3,65.2,61.6,97,83,54,30.10,30.02,9,2,13,0.01
2013-7-9,85.0,72.1,65.6,74.0,67.7,63.5,95,87,66,30.07,29.95,8,2,12,0.02
2013-7-10,86.9,73.0,64.6,76.8,67.8,62.1,94,84,64,29.96,29.79,15,4,24,0.57
2013-7-11,79.6,69.2,59.3,68.0,62.5,56.7,95,81,53,29.96,29.82,7,2,13,0.00
2013-7-12,75.6,65.6,58.2,66.3,60.9,55.6,94,85,73,30.09,29.94,10,4,14,0.00
2013-7-13,83.1,69.2,62.6,70.9,64.5,60.5,94,86,63,30.25,30.07,6,2,10,0.00
2013-7-14,88.9,75.1,64.6,73.3,67.8,62.4,96,80,54,30.30,30.24,11,4,17,0.00
2013-7-15,91.5,76.5,61.9,74.1,67.5,60.2,96,76,48,30.30,30.20,7,2,11,0.00
2013-7-16,90.1,79.1,67.9,76.1,70.0,64.7,93,76,49,30.27,30.17,7,2,12,0.00
2013-7-17,91.8,79.1,66.8,75.9,70.4,64.7,95,76,51,30.24,30.09,9,1,13,0.00
2013-7-18,94.8,79.6,66.7,79.2,71.7,64.3,96,79,53,30.14,29.97,6,1,8,0.00
2013-7-19,93.7,79.8,68.9,77.4,71.1,66.3,94,77,51,30.00,29.83,11,4,18,0.00
2013-7-20,84.8,75.5,67.0,74.4,68.7,63.0,95,80,61,29.88,29.78,12,4,18,0.34
2013-7-21,87.0,72.5,63.8,73.8,66.5,61.3,95,82,59,29.94,29.85,13,2,14,0.66
2013-7-22,81.1,70.5,65.2,72.5,67.7,63.7,98,91,74,29.93,29.75,4,1,8,0.35
2013-7-23,82.7,72.6,66.2,69.3,66.6,61.7,97,82,59,29.74,29.64,10,2,19,0.01
2013-7-24,74.8,66.4,52.1,62.3,57.5,49.4,91,74,51,29.96,29.68,12,4,16,0.00
2013-7-25,73.6,60.0,47.4,58.9,52.3,45.5,94,78,51,30.08,29.96,8,3,14,0.00
2013-7-26,82.7,64.0,45.8,63.0,54.6,44.2,96,75,43,30.11,30.00,6,1,10,0.01
2013-7-27,74.5,63.1,51.9,68.1,59.5,49.9,96,88,78,30.02,29.86,5,1,8,0.06
2013-7-28,81.0,68.5,55.4,67.0,59.2,52.5,97,76,40,30.01,29.84,11,3,17,0.13
2013-7-29,76.2,62.4,48.1,58.9,53.4,46.2,95,75,44,30.17,30.01,10,3,14,0.01
2013-7-30,79.0,62.9,46.4,62.4,54.0,44.8,96,76,47,30.23,30.14,9,2,14,0.00
2013-7-31,82.6,65.2,49.6,67.4,58.0,47.8,96,80,49,30.16,29.96,8,1,13,0.01
2013-8-1,80.3,68.7,58.7,69.9,62.2,55.8,93,81,53,29.95,29.81,8,2,14,0.00
2013-8-2,79.9,66.4,52.3,65.4,56.3,50.6,96,73,42,29.95,29.87,13,4,22,0.01
2013-8-3,76.2,68.5,55.8,66.3,62.2,53.1,91,80,69,29.95,29.88,12,5,19,0.00
2013-8-4,74.4,62.0,46.6,60.1,52.4,44.8,97,73,46,30.05,29.94,13,4,19,0.01
2013-8-5,75.7,61.9,45.2,58.8,52.0,43.2,95,73,41,30.11,30.01,7,1,11,0.00
2013-8-6,80.6,64.1,49.8,64.6,56.8,47.5,94,79,54,30.04,29.99,9,2,14,0.00
2013-8-7,77.6,67.5,61.0,70.3,63.7,58.0,96,88,78,30.04,29.94,19,1,25,0.04
2013-8-8,85.3,69.6,60.1,75.3,66.8,59.0,98,92,70,29.99,29.92,8,2,13,0.09
2013-8-9,80.5,71.8,63.1,73.7,68.7,61.0,97,90,77,29.96,29.84,9,2,13,0.02
2013-8-10,81.8,68.4,58.8,67.5,61.6,57.3,97,81,52,30.08,29.96,8,2,11,0.00
2013-8-11,83.7,68.5,56.7,70.5,63.2,55.0,97,84,58,30.11,29.98,5,1,9,0.01
2013-8-12,83.3,71.5,63.3,71.1,65.1,60.3,97,82,54,30.03,29.88,7,1,11,0.01
2013-8-13,79.0,68.0,59.4,69.9,61.8,49.7,95,82,61,29.91,29.74,10,4,16,0.00
2013-8-14,69.4,58.3,46.7,54.9,50.2,43.9,91,75,56,30.12,29.90,9,4,15,0.00
2013-8-15,65.8,47.3,40.6,57.2,44.5,38.7,96,90,72,30.20,30.11,6,1,9,0.01
2013-8-16,79.3,60.4,43.1,61.7,51.7,41.5,96,76,41,30.19,30.13,5,1,8,0.00
2013-8-17,77.4,61.4,46.1,62.6,53.6,44.5,96,78,47,30.27,30.19,8,1,14,0.00
2013-8-18,69.5,60.3,56.2,62.1,56.8,53.9,95,89,74,30.26,30.16,5,1,7,0.01
2013-8-19,75.1,63.2,56.4,68.1,60.2,54.7,96,90,78,30.17,30.05,8,1,9,0.00
2013-8-20,83.8,67.9,56.6,68.0,60.6,54.3,98,80,43,30.18,30.09,4,1,7,0.00
2013-8-21,84.4,68.0,52.4,72.5,62.3,51.0,97,83,57,30.20,30.05,5,1,7,0.00
2013-8-22,84.2,72.3,62.9,70.6,65.3,59.8,95,80,56,30.07,29.93,9,3,14,0.01
2013-8-23,78.1,67.2,56.2,66.9,61.8,53.6,96,84,51,30.14,29.94,7,1,10,0.00
2013-8-24,81.2,63.1,49.8,63.0,54.2,45.3,97,77,31,30.33,30.14,5,1,8,0.00
2013-8-25,83.7,63.2,45.3,65.1,55.4,43.6,96,78,49,30.39,30.23,8,2,11,0.00
2013-8-26,85.2,69.5,52.6,66.6,60.5,50.3,96,75,48,30.25,29.97,10,4,15,0.00
2013-8-27,85.1,75.2,66.9,73.2,68.5,63.2,89,80,63,29.97,29.87,11,3,18,0.00
2013-8-28,72.4,68.8,66.7,68.9,66.6,64.4,96,93,85,29.92,29.80,6,1,11,0.01
2013-8-29,84.6,72.6,62.6,72.2,67.0,60.5,97,84,54,30.01,29.87,4,1,6,0.00
2013-8-30,89.2,71.8,59.2,72.8,64.6,57.8,97,81,48,30.00,29.81,8,2,11,0.00
2013-8-31,88.1,72.7,61.6,75.4,66.7,59.9,97,83,54,29.84,29.74,8,2,12,0.00
2013-9-1,81.8,70.4,61.4,72.8,65.9,59.7,97,87,65,29.83,29.76,6,1,11,0.00
2013-9-2,86.5,72.1,61.5,73.0,65.7,60.3,97,82,53,29.80,29.69,12,3,18,0.00
2013-9-3,74.3,65.0,55.5,62.9,57.9,52.6,97,80,53,30.00,29.75,11,3,18,0.00
2013-9-4,77.8,62.0,47.4,59.6,53.5,45.5,96,76,44,30.09,29.99,8,3,13,0.01
2013-9-5,73.2,62.1,46.8,61.7,53.1,44.0,93,75,39,30.18,30.02,11,4,18,0.00
2013-9-6,71.9,54.5,38.6,55.3,46.0,36.8,95,76,44,30.28,30.14,4,1,7,0.00
2013-9-7,80.1,59.1,40.1,59.9,49.1,38.5,96,74,29,30.16,29.94,7,2,11,0.00
2013-9-8,79.0,67.0,53.7,67.8,60.3,51.2,93,80,62,30.06,29.90,10,3,13,0.00
2013-9-9,73.0,59.6,46.5,61.6,53.7,44.6,95,82,58,30.18,30.06,8,2,13,0.00
2013-9-10,91.0,71.6,56.2,75.7,65.2,54.3,94,82,59,30.15,30.05,11,4,15,0.00
2013-9-11,90.8,74.4,65.3,77.0,69.2,63.3,96,85,60,30.12,29.99,8,2,13,0.00
2013-9-12,86.7,70.0,60.9,72.9,65.2,57.7,95,86,60,29.99,29.74,13,4,19,0.01
2013-9-13,67.0,58.7,47.7,57.9,52.8,44.0,95,81,64,29.98,29.74,11,4,14,0.00
2013-9-14,63.6,51.0,40.1,49.5,43.5,38.0,93,77,54,30.18,29.98,8,2,11,0.00
2013-9-15,74.1,53.7,35.6,60.8,47.4,34.0,96,81,54,30.23,30.06,7,2,12,0.00
2013-9-16,68.5,58.2,52.4,57.3,52.8,49.6,94,83,58,30.28,30.06,9,2,16,0.00
2013-9-17,67.8,50.4,36.8,50.8,41.6,34.6,94,75,37,30.44,30.28,7,2,10,0.00
2013-9-18,73.0,50.1,31.7,52.8,42.3,29.9,95,78,43,30.34,30.16,9,2,14,0.00
2013-9-19,70.4,53.8,41.5,63.0,50.3,39.6,96,88,74,30.19,30.07,5,1,7,0.00
2013-9-20,79.7,61.1,45.8,65.9,56.1,44.4,97,85,60,30.08,29.89,10,2,15,0.00
2013-9-21,65.8,60.1,53.8,61.7,57.6,52.3,95,91,86,29.89,29.65,13,2,17,0.00
2013-9-22,63.0,55.0,45.9,54.0,49.3,44.2,97,82,58,29.99,29.74,10,3,16,0.00
2013-9-23,60.4,51.0,37.3,47.1,43.0,35.1,92,75,57,30.12,29.99,9,3,14,0.00
2013-9-24,71.5,47.6,31.5,54.6,40.8,29.7,96,80,38,30.16,29.98,3,0,6,0.07
2013-9-25,70.8,50.4,34.9,56.0,44.3,33.1,96,82,49,30.02,29.91,5,0,8,0.01
2013-9-26,75.1,53.5,37.9,55.1,45.0,36.3,96,77,31,30.11,29.97,6,1,10,0.00
2013-9-27,69.2,53.3,40.6,58.7,48.4,38.7,97,85,59,30.24,30.11,7,2,13,0.00
2013-9-28,66.3,52.7,41.3,58.2,47.7,39.7,97,85,61,30.32,30.23,9,1,10,0.01
2013-9-29,72.2,51.7,38.2,55.9,45.8,36.8,97,82,50,30.23,30.05,7,2,12,0.01
2013-9-30,76.0,56.9,43.0,59.8,50.3,40.8,96,81,48,30.08,29.98,6,1,9,0.00
2013-10-1,76.9,60.7,49.7,62.6,54.6,47.8,97,82,54,30.08,29.98,11,2,14,0.01
2013-10-2,80.0,65.0,49.1,65.2,57.7,47.2,96,79,53,30.07,30.01,11,4,18,0.00
2013-10-3,79.3,62.8,49.4,67.4,58.0,48.0,98,85,64,30.12,30.02,7,1,9,0.01
2013-10-4,83.3,67.8,56.5,68.3,61.4,54.8,96,82,52,30.09,29.99,10,2,15,0.17
2013-10-5,84.8,68.2,59.9,69.7,63.8,58.8,97,87,57,30.08,29.97,10,1,11,0.37
2013-10-6,87.6,71.8,59.5,67.6,62.1,58.4,97,75,42,29.99,29.80,13,5,21,0.01
2013-10-7,72.2,60.0,47.0,64.0,52.6,42.4,91,77,56,30.08,29.67,15,6,21,0.70
2013-10-8,66.0,52.0,37.9,49.2,43.1,35.5,94,74,44,30.32,30.07,10,2,17,0.00
2013-10-9,61.7,48.1,34.3,49.5,39.9,32.6,96,76,45,30.39,30.28,8,2,12,0.01
2013-10-10,57.3,48.4,42.1,48.8,43.9,39.0,94,85,65,30.29,30.11,7,3,11,0.25
2013-10-11,53.5,50.1,47.0,51.8,48.3,44.9,95,93,91,30.10,30.05,9,6,13,0.75
2013-10-12,70.2,60.3,51.9,60.5,53.9,49.3,94,80,58,30.20,30.07,8,4,12,0.00
2013-10-13,60.3,55.1,52.1,54.5,52.4,49.5,94,91,77,30.31,30.18,7,1,7,0.05
2013-10-14,60.0,55.0,52.2,55.6,52.5,49.9,95,91,86,30.33,30.24,3,0,4,0.00
2013-10-15,70.8,59.1,50.5,58.1,53.4,48.3,96,83,61,30.25,30.05,9,2,12,0.00
2013-10-16,65.8,55.3,45.7,58.1,50.9,43.5,93,85,70,30.05,29.88,6,2,8,0.00
2013-10-17,61.2,56.8,51.7,56.9,52.4,46.3,94,85,78,29.90,29.64,17,3,26,0.17
2013-10-18,61.3,51.3,38.2,46.7,41.7,35.5,90,71,46,30.01,29.85,13,5,26,0.00
2013-10-19,52.7,42.4,29.7,47.3,38.7,27.9,96,87,75,30.00,29.78,15,2,24,0.03
2013-10-20,59.1,46.4,34.8,40.3,36.4,32.1,90,70,41,30.08,29.93,13,5,18,0.00
2013-10-21,67.8,45.4,28.4,42.0,35.6,26.4,95,73,35,30.13,29.90,10,3,14,0.01
2013-10-22,53.0,44.0,31.3,46.0,35.8,26.9,94,75,38,29.91,29.83,14,4,20,0.00
2013-10-23,44.6,39.3,32.5,39.1,35.0,29.9,90,84,76,29.91,29.73,13,2,17,0.04
2013-10-24,44.1,38.2,30.9,34.5,31.1,26.7,88,76,53,30.13,29.91,16,5,21,0.03
2013-10-25,47.2,37.8,26.0,34.9,31.0,23.5,91,77,54,30.32,30.13,12,5,15,0.00
2013-10-26,54.3,38.2,20.6,32.1,24.6,18.5,93,64,30,30.29,29.93,17,6,25,0.01
2013-10-27,51.1,41.8,26.3,36.8,31.5,23.8,90,68,45,30.15,29.95,11,4,18,0.00
2013-10-28,61.3,37.8,22.7,38.0,29.4,20.5,93,76,38,30.32,30.14,7,1,11,0.00
2013-10-29,59.5,41.6,26.4,42.2,34.8,24.1,94,78,45,30.42,30.30,5,1,7,0.00
2013-10-30,68.2,46.9,32.8,51.5,40.8,30.6,93,81,54,30.31,30.13,9,1,14,0.00
2013-10-31,61.5,54.3,47.1,56.8,51.4,44.6,94,90,83,30.15,29.62,7,2,11,0.00
2013-11-1,65.7,57.1,37.3,58.4,48.3,34.9,93,74,44,29.69,29.40,20,8,28,0.00
2013-11-2,55.6,44.2,31.9,46.2,38.3,30.1,95,81,57,29.90,29.65,15,4,23,0.00
2013-11-3,48.9,40.4,26.1,40.9,32.2,23.3,89,74,43,30.48,29.90,11,5,15,0.00
2013-11-4,43.5,31.8,19.0,26.8,22.2,16.6,92,70,42,30.65,30.48,7,2,11,0.00
2013-11-5,52.4,39.2,29.3,33.0,27.8,22.7,88,67,33,30.62,30.43,8,2,15,0.00
2013-11-6,67.3,48.3,30.5,50.2,41.1,27.9,91,78,50,30.44,29.95,13,4,19,0.00
2013-11-7,58.9,47.8,38.3,50.5,40.2,24.3,92,75,54,30.08,29.85,14,5,23,0.00
2013-11-8,43.6,37.2,24.0,30.9,27.3,21.1,89,68,50,30.31,30.03,14,6,24,0.00
2013-11-9,53.9,36.0,20.3,31.3,25.8,17.9,91,70,36,30.33,29.98,13,4,21,0.00
2013-11-10,53.2,46.4,40.5,36.7,32.1,27.4,66,58,44,30.23,29.94,18,9,29,0.00
2013-11-11,54.9,42.8,27.5,38.3,28.4,17.5,89,61,25,30.27,30.02,13,6,23,0.00
2013-11-12,43.6,31.7,25.8,38.7,24.1,17.1,91,74,51,30.44,30.03,15,7,24,0.00
2013-11-13,36.1,30.6,26.3,23.7,21.1,19.0,79,68,54,30.52,30.37,12,6,20,0.00
2013-11-14,54.3,39.1,29.4,21.3,16.1,0.2,70,43,11,30.37,30.21,14,7,20,0.00
2013-11-15,57.1,40.4,25.5,40.5,24.4,15.6,88,58,20,30.25,30.17,14,4,17,0.00
2013-11-16,59.3,46.4,31.5,45.3,40.5,29.4,95,81,58,30.29,30.16,8,2,12,0.00
2013-11-17,56.5,50.9,46.1,52.7,48.2,43.4,92,90,87,30.16,29.59,18,4,28,0.00
2013-11-18,56.8,50.4,40.0,48.9,34.7,26.8,90,56,35,29.98,29.63,22,12,33,0.00
2013-11-19,39.9,34.9,23.4,28.6,25.5,19.7,88,69,60,30.42,29.98,14,6,22,0.00
2013-11-20,43.8,29.2,16.6,25.2,18.8,10.7,92,70,28,30.58,30.41,7,2,13,0.00
2013-11-21,47.7,36.2,22.3,36.6,30.4,17.7,88,80,64,30.57,30.35,10,2,16,0.00
2013-11-22,52.8,43.1,37.9,48.4,39.6,33.3,92,87,76,30.35,30.04,15,4,26,0.00
2013-11-23,39.7,32.2,20.5,33.4,22.8,8.7,84,69,48,30.28,30.07,17,10,27,0.00
2013-11-24,22.7,19.7,17.2,16.5,11.2,7.6,86,69,59,30.53,30.28,13,6,21,0.00
2013-11-25,34.6,23.2,11.1,20.3,11.2,6.7,85,62,34,30.54,30.29,9,3,13,0.00
2013-11-26,31.6,29.6,26.6,28.5,26.1,18.7,93,87,62,30.30,29.70,4,0,6,0.00
2013-11-27,33.2,27.9,23.3,30.4,22.9,16.5,94,81,72,30.06,29.64,16,2,24,0.00
2013-11-28,28.5,24.0,18.8,21.9,17.8,13.4,90,77,62,30.48,30.06,11,4,19,0.00
2013-11-29,31.9,23.5,14.4,25.3,19.8,12.0,92,86,69,30.74,30.47,9,1,11,0.00
2013-11-30,33.0,21.0,10.9,24.6,17.0,8.5,91,85,70,30.74,30.38,9,2,12,0.00
2013-12-1,39.7,27.6,16.2,33.0,23.8,14.0,91,86,69,30.37,30.03,7,2,10,0.00
2013-12-2,48.5,37.0,28.4,38.9,32.5,25.8,91,84,65,30.03,29.85,2,0,4,0.00
2013-12-3,50.9,36.2,28.4,41.1,32.6,26.2,93,87,68,30.00,29.87,6,1,8,0.00
2013-12-4,51.0,35.7,27.2,42.4,32.6,25.4,96,89,71,30.10,30.00,6,1,9,0.00
2013-12-5,52.4,45.0,36.8,49.2,43.0,34.7,96,93,86,30.05,29.91,8,2,9,0.00
2013-12-6,45.9,36.1,28.8,43.9,33.4,26.9,93,90,84,30.23,29.92,14,5,18,0.00
2013-12-7,31.0,28.2,21.6,28.2,23.0,16.4,94,81,70,30.60,30.20,11,5,18,0.00
2013-12-8,23.8,21.3,16.9,21.5,17.8,13.5,92,86,78,30.60,30.30,7,2,10,0.00
2013-12-9,38.5,30.6,23.6,34.7,27.5,21.6,93,88,76,30.31,30.05,18,6,26,0.00
2013-12-10,33.7,28.8,24.1,28.2,20.4,12.7,85,71,54,30.21,30.00,19,8,29,0.00
2013-12-11,30.6,24.2,18.3,20.9,14.1,10.6,89,66,45,30.36,30.20,16,8,23,0.00
2013-12-12,23.9,20.2,16.1,17.6,8.4,2.9,80,61,46,30.45,30.23,14,8,27,0.00
2013-12-13,34.6,25.6,20.0,20.8,13.9,6.0,87,62,49,30.32,30.21,13,6,20,0.00
2013-12-14,30.6,27.1,24.3,28.0,24.1,20.4,93,89,78,30.32,29.76,4,1,7,0.00
2013-12-15,36.5,29.4,25.1,33.2,24.5,12.8,94,82,59,29.98,29.64,18,9,31,0.00
2013-12-16,25.7,22.4,18.1,20.4,15.5,10.7,87,75,57,30.18,29.98,14,4,24,0.00
2013-12-17,37.5,27.0,21.9,30.7,23.3,19.1,92,86,72,30.15,29.95,11,2,14,0.00
2013-12-18,30.6,28.3,25.2,24.7,21.7,18.8,83,76,68,30.21,30.02,12,6,25,0.00
2013-12-19,51.4,33.4,14.9,36.5,25.7,11.6,92,75,52,30.15,30.06,15,4,24,0.00
2013-12-20,48.1,38.8,28.1,43.6,33.6,26.1,92,82,66,30.10,29.95,7,3,10,0.00
2013-12-21,46.7,41.5,36.1,45.3,39.6,33.8,96,93,87,29.97,29.81,6,2,8,0.00
2013-12-22,63.7,54.6,39.9,56.7,50.4,38.6,98,86,68,29.93,29.70,16,5,22,0.00
2013-12-23,55.6,42.7,31.7,50.5,37.1,21.1,94,81,64,30.25,29.90,13,5,16,0.00
2013-12-24,31.7,25.3,15.4,24.7,16.5,7.6,85,69,53,30.51,30.21,17,7,29,0.00
2013-12-25,26.5,20.4,13.6,16.0,11.9,8.0,86,70,56,30.57,30.33,11,3,16,0.00
2013-12-26,36.4,28.6,23.4,26.7,19.7,14.8,88,70,54,30.37,30.22,15,4,25,0.00
2013-12-27,41.8,28.1,15.9,26.2,19.5,13.2,90,72,36,30.39,30.31,15,3,19,0.00
2013-12-28,54.8,37.4,20.3,29.9,24.9,17.1,90,64,37,30.32,30.09,12,5,21,0.00
2013-12-29,41.7,36.4,32.9,38.1,32.4,26.1,95,86,61,30.09,29.62,12,3,20,0.00
2013-12-30,41.5,30.4,23.3,37.6,24.5,14.3,88,79,67,30.20,29.82,13,6,24,0.00
2013-12-31,28.3,24.4,21.0,23.5,18.7,14.9,90,79,69,30.31,30.09,22,7,42,0.00
2014-1-1,41.9,30.2,23.9,27.7,22.3,17.7,86,73,50,30.36,30.14,8,4,14,0.00
2014-1-2,25.3,21.9,16.4,22.5,19.2,10.4,92,89,77,30.14,29.71,15,4,17,0.00